sensor_id;sensor_type;location;lat;lon;timestamp;temperature;humidity
54126;DHT22;40360;52.992;6.796;2023-04-08T00:00:56;4.40;99.90
54126;DHT22;40360;52.992;6.796;2023-04-08T00:03:21;4.40;99.90
54126;DHT22;40360;52.992;6.796;2023-04-08T00:05:47;4.40;99.90
54126;DHT22;40360;52.992;6.796;2023-04-08T00:08:13;4.30;99.90
54126;DHT22;40360;52.992;6.796;2023-04-08T00:10:38;4.20;99.90
54126;DHT22;40360;52.992;6.796;2023-04-08T00:13:04;4.20;99.90
54126;DHT22;40360;52.992;6.796;2023-04-08T00:15:29;4.20;99.90
54126;DHT22;40360;52.992;6.796;2023-04-08T00:17:55;4.10;99.90
54126;DHT22;40360;52.992;6.796;2023-04-08T00:20:22;4.10;99.90
54126;DHT22;40360;52.992;6.796;2023-04-08T00:22:48;4.10;99.90
54126;DHT22;40360;52.992;6.796;2023-04-08T00:25:14;4.10;99.90
54126;DHT22;40360;52.992;6.796;2023-04-08T00:27:40;4.10;99.90
54126;DHT22;40360;52.992;6.796;2023-04-08T00:30:06;4.10;99.90
54126;DHT22;40360;52.992;6.796;2023-04-08T00:32:32;4.00;99.90
54126;DHT22;40360;52.992;6.796;2023-04-08T00:34:57;4.00;99.90
54126;DHT22;40360;52.992;6.796;2023-04-08T00:37:23;3.90;99.90
54126;DHT22;40360;52.992;6.796;2023-04-08T00:39:50;3.90;99.90
54126;DHT22;40360;52.992;6.796;2023-04-08T00:42:17;3.80;99.90
54126;DHT22;40360;52.992;6.796;2023-04-08T00:44:43;3.70;99.90
54126;DHT22;40360;52.992;6.796;2023-04-08T00:47:12;3.70;99.90
54126;DHT22;40360;52.992;6.796;2023-04-08T00:49:37;3.60;99.90
54126;DHT22;40360;52.992;6.796;2023-04-08T00:52:03;3.60;99.90
54126;DHT22;40360;52.992;6.796;2023-04-08T00:54:30;3.50;99.90
54126;DHT22;40360;52.992;6.796;2023-04-08T00:56:56;3.50;99.90
54126;DHT22;40360;52.992;6.796;2023-04-08T00:59:24;3.50;99.90
54126;DHT22;40360;52.992;6.796;2023-04-08T01:07:34;3.40;99.90
54126;DHT22;40360;52.992;6.796;2023-04-08T01:10:16;3.40;99.90
54126;DHT22;40360;52.992;6.796;2023-04-08T01:13:08;3.40;99.90
54126;DHT22;40360;52.992;6.796;2023-04-08T01:15:37;3.40;99.90
54126;DHT22;40360;52.992;6.796;2023-04-08T01:18:09;3.40;99.90
54126;DHT22;40360;52.992;6.796;2023-04-08T01:20:37;3.40;99.90
54126;DHT22;40360;52.992;6.796;2023-04-08T01:23:14;3.40;99.90
54126;DHT22;40360;52.992;6.796;2023-04-08T01:25:50;3.40;99.90
54126;DHT22;40360;52.992;6.796;2023-04-08T01:28:18;3.30;99.90
54126;DHT22;40360;52.992;6.796;2023-04-08T01:30:45;3.30;99.90
54126;DHT22;40360;52.992;6.796;2023-04-08T01:33:14;3.30;99.90
54126;DHT22;40360;52.992;6.796;2023-04-08T01:35:40;3.30;99.90
54126;DHT22;40360;52.992;6.796;2023-04-08T01:38:08;3.40;99.90
54126;DHT22;40360;52.992;6.796;2023-04-08T01:40:34;3.40;99.90
54126;DHT22;40360;52.992;6.796;2023-04-08T01:43:03;3.40;99.90
54126;DHT22;40360;52.992;6.796;2023-04-08T01:45:30;3.40;99.90
54126;DHT22;40360;52.992;6.796;2023-04-08T01:47:56;3.40;99.90
54126;DHT22;40360;52.992;6.796;2023-04-08T01:50:23;3.40;99.90
54126;DHT22;40360;52.992;6.796;2023-04-08T01:52:50;3.40;99.90
54126;DHT22;40360;52.992;6.796;2023-04-08T01:55:19;3.40;99.90
54126;DHT22;40360;52.992;6.796;2023-04-08T01:57:51;3.40;99.90
54126;DHT22;40360;52.992;6.796;2023-04-08T02:00:27;3.30;99.90
54126;DHT22;40360;52.992;6.796;2023-04-08T02:02:53;3.30;99.90
54126;DHT22;40360;52.992;6.796;2023-04-08T02:05:20;3.30;99.90
54126;DHT22;40360;52.992;6.796;2023-04-08T02:07:49;3.30;99.90
54126;DHT22;40360;52.992;6.796;2023-04-08T02:10:14;3.30;99.90
54126;DHT22;40360;52.992;6.796;2023-04-08T02:12:41;3.30;99.90
54126;DHT22;40360;52.992;6.796;2023-04-08T02:15:09;3.20;99.90
54126;DHT22;40360;52.992;6.796;2023-04-08T02:20:18;3.20;99.90
54126;DHT22;40360;52.992;6.796;2023-04-08T02:25:44;3.10;99.90
54126;DHT22;40360;52.992;6.796;2023-04-08T02:28:11;3.10;99.90
54126;DHT22;40360;52.992;6.796;2023-04-08T02:30:42;3.10;99.90
54126;DHT22;40360;52.992;6.796;2023-04-08T02:33:08;3.10;99.90
54126;DHT22;40360;52.992;6.796;2023-04-08T02:35:35;3.10;99.90
54126;DHT22;40360;52.992;6.796;2023-04-08T02:38:03;3.10;99.90
54126;DHT22;40360;52.992;6.796;2023-04-08T02:40:30;3.00;99.90
54126;DHT22;40360;52.992;6.796;2023-04-08T02:42:57;3.10;99.90
54126;DHT22;40360;52.992;6.796;2023-04-08T02:45:27;3.00;99.90
54126;DHT22;40360;52.992;6.796;2023-04-08T02:47:54;3.00;99.90
54126;DHT22;40360;52.992;6.796;2023-04-08T02:50:20;3.00;99.90
54126;DHT22;40360;52.992;6.796;2023-04-08T02:52:45;3.00;99.90
54126;DHT22;40360;52.992;6.796;2023-04-08T02:55:11;3.00;99.90
54126;DHT22;40360;52.992;6.796;2023-04-08T02:57:39;3.00;99.90
54126;DHT22;40360;52.992;6.796;2023-04-08T03:00:05;3.00;99.90
54126;DHT22;40360;52.992;6.796;2023-04-08T03:02:31;2.90;99.90
54126;DHT22;40360;52.992;6.796;2023-04-08T03:04:57;2.90;99.90
54126;DHT22;40360;52.992;6.796;2023-04-08T03:07:23;2.90;99.90
54126;DHT22;40360;52.992;6.796;2023-04-08T03:09:50;2.90;99.90
54126;DHT22;40360;52.992;6.796;2023-04-08T03:12:17;2.90;99.90
54126;DHT22;40360;52.992;6.796;2023-04-08T03:14:42;2.90;99.90
54126;DHT22;40360;52.992;6.796;2023-04-08T03:17:08;2.90;99.90
54126;DHT22;40360;52.992;6.796;2023-04-08T03:19:34;2.90;99.90
54126;DHT22;40360;52.992;6.796;2023-04-08T03:21:59;2.60;99.90
54126;DHT22;40360;52.992;6.796;2023-04-08T03:24:25;2.80;99.90
54126;DHT22;40360;52.992;6.796;2023-04-08T03:26:50;2.80;99.90
54126;DHT22;40360;52.992;6.796;2023-04-08T03:29:16;2.80;99.90
54126;DHT22;40360;52.992;6.796;2023-04-08T03:31:42;2.80;99.90
54126;DHT22;40360;52.992;6.796;2023-04-08T03:34:07;2.80;99.90
54126;DHT22;40360;52.992;6.796;2023-04-08T03:36:33;2.80;99.90
54126;DHT22;40360;52.992;6.796;2023-04-08T03:38:58;2.80;99.90
54126;DHT22;40360;52.992;6.796;2023-04-08T03:41:24;2.80;99.90
54126;DHT22;40360;52.992;6.796;2023-04-08T03:43:50;2.80;99.90
54126;DHT22;40360;52.992;6.796;2023-04-08T03:46:16;2.80;99.90
54126;DHT22;40360;52.992;6.796;2023-04-08T03:48:41;2.80;99.90
54126;DHT22;40360;52.992;6.796;2023-04-08T03:51:07;2.80;99.90
54126;DHT22;40360;52.992;6.796;2023-04-08T03:53:32;2.80;99.90
54126;DHT22;40360;52.992;6.796;2023-04-08T03:55:58;2.80;99.90
54126;DHT22;40360;52.992;6.796;2023-04-08T03:58:24;2.80;99.90
54126;DHT22;40360;52.992;6.796;2023-04-08T04:00:50;2.80;99.90
54126;DHT22;40360;52.992;6.796;2023-04-08T04:03:15;2.80;99.90
54126;DHT22;40360;52.992;6.796;2023-04-08T04:05:41;2.80;99.90
54126;DHT22;40360;52.992;6.796;2023-04-08T04:08:08;2.80;99.90
54126;DHT22;40360;52.992;6.796;2023-04-08T04:10:34;2.80;99.90
54126;DHT22;40360;52.992;6.796;2023-04-08T04:13:00;2.90;99.90
54126;DHT22;40360;52.992;6.796;2023-04-08T04:15:26;2.80;99.90
54126;DHT22;40360;52.992;6.796;2023-04-08T04:17:51;2.90;99.90
54126;DHT22;40360;52.992;6.796;2023-04-08T04:20:17;2.80;99.90
54126;DHT22;40360;52.992;6.796;2023-04-08T04:22:43;2.80;99.90
54126;DHT22;40360;52.992;6.796;2023-04-08T04:25:09;2.80;99.90
54126;DHT22;40360;52.992;6.796;2023-04-08T04:27:35;2.80;99.90
54126;DHT22;40360;52.992;6.796;2023-04-08T04:30:05;2.80;99.90
54126;DHT22;40360;52.992;6.796;2023-04-08T04:32:31;2.80;99.90
54126;DHT22;40360;52.992;6.796;2023-04-08T04:34:57;2.80;99.90
54126;DHT22;40360;52.992;6.796;2023-04-08T04:37:22;2.80;99.90
54126;DHT22;40360;52.992;6.796;2023-04-08T04:39:48;2.80;99.90
54126;DHT22;40360;52.992;6.796;2023-04-08T04:42:14;2.80;99.90
54126;DHT22;40360;52.992;6.796;2023-04-08T04:44:39;2.90;99.90
54126;DHT22;40360;52.992;6.796;2023-04-08T04:47:05;2.90;99.90
54126;DHT22;40360;52.992;6.796;2023-04-08T04:49:31;2.90;99.90
54126;DHT22;40360;52.992;6.796;2023-04-08T04:51:56;2.90;99.90
54126;DHT22;40360;52.992;6.796;2023-04-08T04:54:22;2.90;99.90
54126;DHT22;40360;52.992;6.796;2023-04-08T04:56:47;2.90;99.90
54126;DHT22;40360;52.992;6.796;2023-04-08T04:59:13;3.00;99.90
54126;DHT22;40360;52.992;6.796;2023-04-08T05:01:38;2.90;99.90
54126;DHT22;40360;52.992;6.796;2023-04-08T05:04:05;3.00;99.90
54126;DHT22;40360;52.992;6.796;2023-04-08T05:06:32;3.00;99.90
54126;DHT22;40360;52.992;6.796;2023-04-08T05:08:57;3.10;99.90
54126;DHT22;40360;52.992;6.796;2023-04-08T05:11:23;3.10;99.90
54126;DHT22;40360;52.992;6.796;2023-04-08T05:13:49;3.10;99.90
54126;DHT22;40360;52.992;6.796;2023-04-08T05:16:14;3.20;99.90
54126;DHT22;40360;52.992;6.796;2023-04-08T05:18:41;3.20;99.90
54126;DHT22;40360;52.992;6.796;2023-04-08T05:21:06;3.20;99.90
54126;DHT22;40360;52.992;6.796;2023-04-08T05:23:33;3.30;99.90
54126;DHT22;40360;52.992;6.796;2023-04-08T05:25:59;3.40;99.90
54126;DHT22;40360;52.992;6.796;2023-04-08T05:28:25;3.40;99.90
54126;DHT22;40360;52.992;6.796;2023-04-08T05:30:51;3.40;99.90
54126;DHT22;40360;52.992;6.796;2023-04-08T05:33:17;3.50;99.90
54126;DHT22;40360;52.992;6.796;2023-04-08T05:35:44;3.50;99.90
54126;DHT22;40360;52.992;6.796;2023-04-08T05:38:10;3.60;99.90
54126;DHT22;40360;52.992;6.796;2023-04-08T05:40:36;3.70;99.90
54126;DHT22;40360;52.992;6.796;2023-04-08T05:43:02;3.80;99.90
54126;DHT22;40360;52.992;6.796;2023-04-08T06:01:42;4.60;99.90
54126;DHT22;40360;52.992;6.796;2023-04-08T06:04:08;4.60;99.90
54126;DHT22;40360;52.992;6.796;2023-04-08T06:06:33;4.70;99.90
54126;DHT22;40360;52.992;6.796;2023-04-08T06:08:59;4.80;99.90
54126;DHT22;40360;52.992;6.796;2023-04-08T06:11:25;4.80;99.90
54126;DHT22;40360;52.992;6.796;2023-04-08T06:13:50;4.90;99.90
54126;DHT22;40360;52.992;6.796;2023-04-08T06:16:16;4.90;99.90
54126;DHT22;40360;52.992;6.796;2023-04-08T06:18:42;5.00;99.90
54126;DHT22;40360;52.992;6.796;2023-04-08T06:21:08;5.00;99.90
54126;DHT22;40360;52.992;6.796;2023-04-08T06:23:34;5.10;99.90
54126;DHT22;40360;52.992;6.796;2023-04-08T06:26:00;5.20;99.90
54126;DHT22;40360;52.992;6.796;2023-04-08T06:28:27;5.20;99.90
54126;DHT22;40360;52.992;6.796;2023-04-08T06:30:53;5.30;99.90
54126;DHT22;40360;52.992;6.796;2023-04-08T06:33:19;5.40;99.90
54126;DHT22;40360;52.992;6.796;2023-04-08T06:35:44;5.40;99.90
54126;DHT22;40360;52.992;6.796;2023-04-08T06:38:10;5.40;99.90
54126;DHT22;40360;52.992;6.796;2023-04-08T06:40:38;5.40;99.90
54126;DHT22;40360;52.992;6.796;2023-04-08T06:43:04;5.40;99.90
54126;DHT22;40360;52.992;6.796;2023-04-08T06:45:31;5.50;99.90
54126;DHT22;40360;52.992;6.796;2023-04-08T06:47:57;5.60;99.90
54126;DHT22;40360;52.992;6.796;2023-04-08T06:50:22;5.80;99.90
54126;DHT22;40360;52.992;6.796;2023-04-08T06:52:48;5.90;99.90
54126;DHT22;40360;52.992;6.796;2023-04-08T06:55:14;6.00;99.90
54126;DHT22;40360;52.992;6.796;2023-04-08T06:57:39;6.10;99.90
54126;DHT22;40360;52.992;6.796;2023-04-08T07:00:05;6.10;99.90
54126;DHT22;40360;52.992;6.796;2023-04-08T07:02:31;6.20;99.90
54126;DHT22;40360;52.992;6.796;2023-04-08T07:04:57;6.30;99.90
54126;DHT22;40360;52.992;6.796;2023-04-08T07:07:23;6.30;99.90
54126;DHT22;40360;52.992;6.796;2023-04-08T07:09:49;6.30;99.90
54126;DHT22;40360;52.992;6.796;2023-04-08T07:12:15;6.30;99.90
54126;DHT22;40360;52.992;6.796;2023-04-08T07:14:41;6.30;99.90
54126;DHT22;40360;52.992;6.796;2023-04-08T07:17:06;6.30;99.90
54126;DHT22;40360;52.992;6.796;2023-04-08T07:19:32;6.40;99.90
54126;DHT22;40360;52.992;6.796;2023-04-08T07:21:57;6.40;99.90
54126;DHT22;40360;52.992;6.796;2023-04-08T07:24:23;6.40;99.90
54126;DHT22;40360;52.992;6.796;2023-04-08T07:26:49;6.40;99.90
54126;DHT22;40360;52.992;6.796;2023-04-08T07:29:15;6.40;99.90
54126;DHT22;40360;52.992;6.796;2023-04-08T07:31:42;6.30;99.90
54126;DHT22;40360;52.992;6.796;2023-04-08T07:34:09;6.40;99.90
54126;DHT22;40360;52.992;6.796;2023-04-08T07:36:35;6.40;99.90
54126;DHT22;40360;52.992;6.796;2023-04-08T07:39:00;6.50;99.90
54126;DHT22;40360;52.992;6.796;2023-04-08T07:41:27;6.70;99.90
54126;DHT22;40360;52.992;6.796;2023-04-08T07:43:53;6.80;99.90
54126;DHT22;40360;52.992;6.796;2023-04-08T07:46:20;6.90;99.90
54126;DHT22;40360;52.992;6.796;2023-04-08T07:48:45;7.00;99.90
54126;DHT22;40360;52.992;6.796;2023-04-08T07:51:11;6.90;99.90
54126;DHT22;40360;52.992;6.796;2023-04-08T07:53:38;7.70;99.90
54126;DHT22;40360;52.992;6.796;2023-04-08T07:56:14;7.20;99.90
54126;DHT22;40360;52.992;6.796;2023-04-08T07:58:39;7.30;99.90
54126;DHT22;40360;52.992;6.796;2023-04-08T08:01:18;7.40;99.90
54126;DHT22;40360;52.992;6.796;2023-04-08T08:03:45;7.50;99.90
54126;DHT22;40360;52.992;6.796;2023-04-08T08:06:12;7.50;99.90
54126;DHT22;40360;52.992;6.796;2023-04-08T08:08:37;7.50;99.90
54126;DHT22;40360;52.992;6.796;2023-04-08T08:11:03;7.60;99.90
54126;DHT22;40360;52.992;6.796;2023-04-08T08:13:28;7.70;99.90
54126;DHT22;40360;52.992;6.796;2023-04-08T08:15:54;7.80;99.90
54126;DHT22;40360;52.992;6.796;2023-04-08T08:18:20;7.90;99.90
54126;DHT22;40360;52.992;6.796;2023-04-08T08:20:46;8.00;99.90
54126;DHT22;40360;52.992;6.796;2023-04-08T08:23:11;8.10;99.90
54126;DHT22;40360;52.992;6.796;2023-04-08T08:25:37;8.10;99.90
54126;DHT22;40360;52.992;6.796;2023-04-08T08:28:02;8.10;99.90
54126;DHT22;40360;52.992;6.796;2023-04-08T08:30:28;8.00;99.90
54126;DHT22;40360;52.992;6.796;2023-04-08T08:32:54;7.90;99.90
54126;DHT22;40360;52.992;6.796;2023-04-08T08:35:20;7.80;99.90
54126;DHT22;40360;52.992;6.796;2023-04-08T08:37:46;7.70;99.90
54126;DHT22;40360;52.992;6.796;2023-04-08T08:40:13;7.60;99.90
54126;DHT22;40360;52.992;6.796;2023-04-08T08:42:38;7.60;99.90
54126;DHT22;40360;52.992;6.796;2023-04-08T08:45:05;7.70;99.90
54126;DHT22;40360;52.992;6.796;2023-04-08T08:47:31;7.80;99.90
54126;DHT22;40360;52.992;6.796;2023-04-08T08:49:57;7.80;99.90
54126;DHT22;40360;52.992;6.796;2023-04-08T08:52:23;7.80;99.90
54126;DHT22;40360;52.992;6.796;2023-04-08T08:54:56;7.80;99.90
54126;DHT22;40360;52.992;6.796;2023-04-08T08:57:22;7.80;99.90
54126;DHT22;40360;52.992;6.796;2023-04-08T08:59:48;7.80;99.90
54126;DHT22;40360;52.992;6.796;2023-04-08T09:02:27;7.70;99.90
54126;DHT22;40360;52.992;6.796;2023-04-08T09:04:57;7.70;99.90
54126;DHT22;40360;52.992;6.796;2023-04-08T09:07:25;7.70;99.90
54126;DHT22;40360;52.992;6.796;2023-04-08T09:09:54;7.70;99.90
54126;DHT22;40360;52.992;6.796;2023-04-08T09:12:20;7.70;99.90
54126;DHT22;40360;52.992;6.796;2023-04-08T09:14:46;7.90;99.90
54126;DHT22;40360;52.992;6.796;2023-04-08T09:17:13;8.00;99.90
54126;DHT22;40360;52.992;6.796;2023-04-08T09:19:39;8.00;99.90
54126;DHT22;40360;52.992;6.796;2023-04-08T09:22:24;8.00;99.90
54126;DHT22;40360;52.992;6.796;2023-04-08T09:24:51;8.10;99.90
54126;DHT22;40360;52.992;6.796;2023-04-08T09:27:32;8.10;99.90
54126;DHT22;40360;52.992;6.796;2023-04-08T09:30:14;8.00;99.90
54126;DHT22;40360;52.992;6.796;2023-04-08T09:32:47;8.00;99.90
54126;DHT22;40360;52.992;6.796;2023-04-08T09:35:13;8.00;99.90
54126;DHT22;40360;52.992;6.796;2023-04-08T09:37:38;8.00;99.90
54126;DHT22;40360;52.992;6.796;2023-04-08T09:40:04;8.00;99.90
54126;DHT22;40360;52.992;6.796;2023-04-08T09:42:32;8.00;99.90
54126;DHT22;40360;52.992;6.796;2023-04-08T09:45:00;8.00;99.90
54126;DHT22;40360;52.992;6.796;2023-04-08T09:47:27;8.10;99.90
54126;DHT22;40360;52.992;6.796;2023-04-08T09:49:58;8.10;99.90
54126;DHT22;40360;52.992;6.796;2023-04-08T09:52:32;8.20;99.90
54126;DHT22;40360;52.992;6.796;2023-04-08T09:55:01;8.20;99.90
54126;DHT22;40360;52.992;6.796;2023-04-08T09:57:40;8.30;99.90
54126;DHT22;40360;52.992;6.796;2023-04-08T10:00:13;8.40;99.90
54126;DHT22;40360;52.992;6.796;2023-04-08T10:05:17;8.50;99.90
54126;DHT22;40360;52.992;6.796;2023-04-08T10:07:43;8.60;99.90
54126;DHT22;40360;52.992;6.796;2023-04-08T10:10:09;8.60;99.90
54126;DHT22;40360;52.992;6.796;2023-04-08T10:12:38;8.70;99.90
54126;DHT22;40360;52.992;6.796;2023-04-08T10:17:53;8.90;99.90
54126;DHT22;40360;52.992;6.796;2023-04-08T10:23:05;9.00;99.90
54126;DHT22;40360;52.992;6.796;2023-04-08T10:30:44;9.00;99.90
54126;DHT22;40360;52.992;6.796;2023-04-08T10:33:20;9.10;99.90
54126;DHT22;40360;52.992;6.796;2023-04-08T10:35:48;9.10;99.90
54126;DHT22;40360;52.992;6.796;2023-04-08T10:38:15;9.20;99.90
54126;DHT22;40360;52.992;6.796;2023-04-08T10:40:43;9.30;99.90
54126;DHT22;40360;52.992;6.796;2023-04-08T10:43:12;9.40;99.90
54126;DHT22;40360;52.992;6.796;2023-04-08T10:45:39;9.40;99.90
54126;DHT22;40360;52.992;6.796;2023-04-08T10:48:18;9.50;99.90
54126;DHT22;40360;52.992;6.796;2023-04-08T10:51:02;9.50;99.90
54126;DHT22;40360;52.992;6.796;2023-04-08T10:53:30;9.60;99.90
54126;DHT22;40360;52.992;6.796;2023-04-08T10:56:09;9.60;99.90
54126;DHT22;40360;52.992;6.796;2023-04-08T10:58:47;9.60;99.90
54126;DHT22;40360;52.992;6.796;2023-04-08T11:01:13;9.60;99.90
54126;DHT22;40360;52.992;6.796;2023-04-08T11:03:41;9.50;99.90
54126;DHT22;40360;52.992;6.796;2023-04-08T11:06:07;9.60;99.90
54126;DHT22;40360;52.992;6.796;2023-04-08T11:08:34;9.60;99.90
54126;DHT22;40360;52.992;6.796;2023-04-08T11:11:01;9.60;99.90
54126;DHT22;40360;52.992;6.796;2023-04-08T11:13:27;9.60;99.90
54126;DHT22;40360;52.992;6.796;2023-04-08T11:15:54;9.70;99.90
54126;DHT22;40360;52.992;6.796;2023-04-08T11:18:21;9.70;99.90
54126;DHT22;40360;52.992;6.796;2023-04-08T11:20:50;9.60;99.90
54126;DHT22;40360;52.992;6.796;2023-04-08T11:23:16;9.60;99.90
54126;DHT22;40360;52.992;6.796;2023-04-08T11:25:42;9.60;99.90
54126;DHT22;40360;52.992;6.796;2023-04-08T11:28:12;9.60;99.90
54126;DHT22;40360;52.992;6.796;2023-04-08T11:30:39;9.70;99.90
54126;DHT22;40360;52.992;6.796;2023-04-08T11:33:06;9.70;99.90
54126;DHT22;40360;52.992;6.796;2023-04-08T11:35:32;9.70;99.90
54126;DHT22;40360;52.992;6.796;2023-04-08T11:37:58;9.70;99.90
54126;DHT22;40360;52.992;6.796;2023-04-08T11:40:24;9.60;99.90
54126;DHT22;40360;52.992;6.796;2023-04-08T11:42:51;10.10;99.90
54126;DHT22;40360;52.992;6.796;2023-04-08T11:45:19;9.60;99.90
54126;DHT22;40360;52.992;6.796;2023-04-08T11:47:46;9.60;99.90
54126;DHT22;40360;52.992;6.796;2023-04-08T11:50:34;9.60;99.90
54126;DHT22;40360;52.992;6.796;2023-04-08T11:52:58;9.60;99.90
54126;DHT22;40360;52.992;6.796;2023-04-08T11:55:26;9.60;99.90
54126;DHT22;40360;52.992;6.796;2023-04-08T11:57:54;9.70;99.90
54126;DHT22;40360;52.992;6.796;2023-04-08T12:00:21;9.70;99.90
54126;DHT22;40360;52.992;6.796;2023-04-08T12:02:47;9.70;99.90
54126;DHT22;40360;52.992;6.796;2023-04-08T12:05:14;9.70;99.90
54126;DHT22;40360;52.992;6.796;2023-04-08T12:07:40;9.70;99.90
54126;DHT22;40360;52.992;6.796;2023-04-08T12:10:07;9.70;99.90
54126;DHT22;40360;52.992;6.796;2023-04-08T12:12:33;9.70;99.90
54126;DHT22;40360;52.992;6.796;2023-04-08T12:14:59;9.70;99.90
54126;DHT22;40360;52.992;6.796;2023-04-08T12:17:24;9.60;99.90
54126;DHT22;40360;52.992;6.796;2023-04-08T12:19:50;9.70;99.90
54126;DHT22;40360;52.992;6.796;2023-04-08T12:22:15;9.70;99.90
54126;DHT22;40360;52.992;6.796;2023-04-08T12:24:41;9.70;99.90
54126;DHT22;40360;52.992;6.796;2023-04-08T12:27:07;9.70;99.90
54126;DHT22;40360;52.992;6.796;2023-04-08T12:29:32;9.70;99.90
54126;DHT22;40360;52.992;6.796;2023-04-08T12:31:58;9.70;99.90
54126;DHT22;40360;52.992;6.796;2023-04-08T12:34:24;9.70;99.90
54126;DHT22;40360;52.992;6.796;2023-04-08T12:36:50;9.70;99.90
54126;DHT22;40360;52.992;6.796;2023-04-08T12:39:15;9.80;99.90
54126;DHT22;40360;52.992;6.796;2023-04-08T12:41:41;9.80;99.90
54126;DHT22;40360;52.992;6.796;2023-04-08T12:44:07;9.80;99.90
54126;DHT22;40360;52.992;6.796;2023-04-08T12:46:32;9.80;99.90
54126;DHT22;40360;52.992;6.796;2023-04-08T12:48:58;9.80;99.90
54126;DHT22;40360;52.992;6.796;2023-04-08T12:51:24;9.80;99.90
54126;DHT22;40360;52.992;6.796;2023-04-08T12:53:53;9.90;99.90
54126;DHT22;40360;52.992;6.796;2023-04-08T12:56:19;9.80;99.90
54126;DHT22;40360;52.992;6.796;2023-04-08T12:58:45;9.90;99.90
54126;DHT22;40360;52.992;6.796;2023-04-08T13:01:11;9.90;99.90
54126;DHT22;40360;52.992;6.796;2023-04-08T13:03:37;9.90;99.90
54126;DHT22;40360;52.992;6.796;2023-04-08T13:06:03;9.90;99.90
54126;DHT22;40360;52.992;6.796;2023-04-08T13:08:28;9.90;99.90
54126;DHT22;40360;52.992;6.796;2023-04-08T13:10:54;9.90;99.90
54126;DHT22;40360;52.992;6.796;2023-04-08T13:13:19;10.00;99.90
54126;DHT22;40360;52.992;6.796;2023-04-08T13:15:45;10.00;99.90
54126;DHT22;40360;52.992;6.796;2023-04-08T13:18:11;10.00;99.90
54126;DHT22;40360;52.992;6.796;2023-04-08T13:20:37;10.00;99.90
54126;DHT22;40360;52.992;6.796;2023-04-08T13:23:03;10.10;99.90
54126;DHT22;40360;52.992;6.796;2023-04-08T13:25:28;10.10;99.90
54126;DHT22;40360;52.992;6.796;2023-04-08T13:27:54;10.10;99.90
54126;DHT22;40360;52.992;6.796;2023-04-08T13:30:19;10.10;99.90
54126;DHT22;40360;52.992;6.796;2023-04-08T13:32:45;10.10;99.90
54126;DHT22;40360;52.992;6.796;2023-04-08T13:35:11;10.20;99.90
54126;DHT22;40360;52.992;6.796;2023-04-08T13:37:36;10.20;99.90
54126;DHT22;40360;52.992;6.796;2023-04-08T13:40:02;10.30;99.90
54126;DHT22;40360;52.992;6.796;2023-04-08T13:42:28;10.30;99.90
54126;DHT22;40360;52.992;6.796;2023-04-08T13:44:57;10.40;99.90
54126;DHT22;40360;52.992;6.796;2023-04-08T13:47:23;10.40;99.90
54126;DHT22;40360;52.992;6.796;2023-04-08T13:49:49;10.40;99.90
54126;DHT22;40360;52.992;6.796;2023-04-08T13:52:14;10.40;99.90
54126;DHT22;40360;52.992;6.796;2023-04-08T13:54:40;10.50;99.90
54126;DHT22;40360;52.992;6.796;2023-04-08T13:57:06;10.50;99.90
54126;DHT22;40360;52.992;6.796;2023-04-08T13:59:32;10.50;99.90
54126;DHT22;40360;52.992;6.796;2023-04-08T14:01:57;10.50;99.90
54126;DHT22;40360;52.992;6.796;2023-04-08T14:04:23;10.50;99.90
54126;DHT22;40360;52.992;6.796;2023-04-08T14:06:49;10.60;99.90
54126;DHT22;40360;52.992;6.796;2023-04-08T14:09:19;10.70;99.90
54126;DHT22;40360;52.992;6.796;2023-04-08T14:11:45;10.80;99.90
54126;DHT22;40360;52.992;6.796;2023-04-08T14:14:11;10.80;99.90
54126;DHT22;40360;52.992;6.796;2023-04-08T14:16:37;10.80;99.90
54126;DHT22;40360;52.992;6.796;2023-04-08T14:19:03;10.90;99.90
54126;DHT22;40360;52.992;6.796;2023-04-08T14:21:29;10.90;99.90
54126;DHT22;40360;52.992;6.796;2023-04-08T14:23:56;10.90;99.90
54126;DHT22;40360;52.992;6.796;2023-04-08T14:26:22;10.90;99.90
54126;DHT22;40360;52.992;6.796;2023-04-08T14:28:48;11.00;99.90
54126;DHT22;40360;52.992;6.796;2023-04-08T14:31:14;11.00;99.90
54126;DHT22;40360;52.992;6.796;2023-04-08T14:33:40;11.10;99.90
54126;DHT22;40360;52.992;6.796;2023-04-08T14:36:07;11.10;99.90
54126;DHT22;40360;52.992;6.796;2023-04-08T14:38:33;11.10;99.90
54126;DHT22;40360;52.992;6.796;2023-04-08T14:40:58;11.10;99.90
54126;DHT22;40360;52.992;6.796;2023-04-08T14:43:24;11.20;99.90
54126;DHT22;40360;52.992;6.796;2023-04-08T14:45:50;11.20;99.90
54126;DHT22;40360;52.992;6.796;2023-04-08T14:48:18;11.30;99.90
54126;DHT22;40360;52.992;6.796;2023-04-08T14:50:44;11.30;99.90
54126;DHT22;40360;52.992;6.796;2023-04-08T14:53:10;11.30;99.90
54126;DHT22;40360;52.992;6.796;2023-04-08T14:55:36;11.30;99.90
54126;DHT22;40360;52.992;6.796;2023-04-08T14:58:03;11.30;99.90
54126;DHT22;40360;52.992;6.796;2023-04-08T15:00:29;11.40;99.90
54126;DHT22;40360;52.992;6.796;2023-04-08T15:02:54;11.40;99.90
54126;DHT22;40360;52.992;6.796;2023-04-08T15:05:20;11.40;99.90
54126;DHT22;40360;52.992;6.796;2023-04-08T15:07:46;11.40;99.90
54126;DHT22;40360;52.992;6.796;2023-04-08T15:10:12;11.30;99.90
54126;DHT22;40360;52.992;6.796;2023-04-08T15:12:38;11.30;99.90
54126;DHT22;40360;52.992;6.796;2023-04-08T15:15:04;11.30;99.90
54126;DHT22;40360;52.992;6.796;2023-04-08T15:17:30;11.30;99.90
54126;DHT22;40360;52.992;6.796;2023-04-08T15:19:56;11.40;99.90
54126;DHT22;40360;52.992;6.796;2023-04-08T15:22:22;11.40;99.90
54126;DHT22;40360;52.992;6.796;2023-04-08T15:24:48;11.60;99.90
54126;DHT22;40360;52.992;6.796;2023-04-08T15:27:14;11.60;99.90
54126;DHT22;40360;52.992;6.796;2023-04-08T15:29:40;11.70;99.90
54126;DHT22;40360;52.992;6.796;2023-04-08T15:32:06;11.80;99.90
54126;DHT22;40360;52.992;6.796;2023-04-08T15:34:32;11.80;99.90
54126;DHT22;40360;52.992;6.796;2023-04-08T15:36:58;11.80;99.90
54126;DHT22;40360;52.992;6.796;2023-04-08T15:39:24;11.80;99.90
54126;DHT22;40360;52.992;6.796;2023-04-08T15:41:50;11.80;99.90
54126;DHT22;40360;52.992;6.796;2023-04-08T15:44:15;11.90;99.90
54126;DHT22;40360;52.992;6.796;2023-04-08T15:46:41;12.00;99.90
54126;DHT22;40360;52.992;6.796;2023-04-08T15:49:07;12.30;99.90
54126;DHT22;40360;52.992;6.796;2023-04-08T15:51:33;12.50;99.90
54126;DHT22;40360;52.992;6.796;2023-04-08T15:53:58;12.50;99.90
54126;DHT22;40360;52.992;6.796;2023-04-08T15:56:25;12.50;99.90
54126;DHT22;40360;52.992;6.796;2023-04-08T15:58:52;12.30;99.90
54126;DHT22;40360;52.992;6.796;2023-04-08T16:01:18;12.30;99.90
54126;DHT22;40360;52.992;6.796;2023-04-08T16:03:45;12.20;99.90
54126;DHT22;40360;52.992;6.796;2023-04-08T16:06:10;12.10;99.90
54126;DHT22;40360;52.992;6.796;2023-04-08T16:08:36;12.20;99.90
54126;DHT22;40360;52.992;6.796;2023-04-08T16:11:03;12.20;99.90
54126;DHT22;40360;52.992;6.796;2023-04-08T16:13:29;12.30;99.90
54126;DHT22;40360;52.992;6.796;2023-04-08T16:15:55;12.30;99.90
54126;DHT22;40360;52.992;6.796;2023-04-08T16:18:22;12.30;99.90
54126;DHT22;40360;52.992;6.796;2023-04-08T16:20:49;12.30;99.90